Time;durP1;ratioP1;P1;durP2;ratioP2;P2;SDS_P1;SDS_P2;PMS_P1;PMS_P2;Temp;Humidity;BMP_temperature;BMP_pressure;BME280_temperature;BME280_humidity;BME280_pressure;Samples;Min_cycle;Max_cycle;Signal;HPM_P1;HPM_P2
2023/04/13 00:02:18;;;;;;;;;;;10.00;90.60;;;;;;4999773;28;19958;-69
2023/04/13 00:04:49;;;;;;;;;;;10.00;90.60;;;;;;5003446;28;19934;-69
2023/04/13 00:07:16;;;;;;;;;;;10.00;90.60;;;;;;5001763;28;20067;-69
2023/04/13 00:09:44;;;;;;;;;;;9.90;90.60;;;;;;5003171;28;19929;-68
2023/04/13 00:12:11;;;;;;;;;;;9.90;90.60;;;;;;5000962;28;20003;-69
2023/04/13 00:14:38;;;;;;;;;;;9.80;90.50;;;;;;5003589;28;19930;-69
2023/04/13 00:17:04;;;;;;;;;;;9.80;90.50;;;;;;4995890;28;19934;-69
2023/04/13 00:19:33;;;;;;;;;;;9.80;90.40;;;;;;5001767;28;19933;-69
2023/04/13 00:22:00;;;;;;;;;;;9.70;90.40;;;;;;4999740;28;19930;-69
2023/04/13 00:24:26;;;;;;;;;;;9.70;90.30;;;;;;5002949;28;19930;-70
2023/04/13 00:26:53;;;;;;;;;;;9.70;90.30;;;;;;5002093;28;20009;-69
2023/04/13 00:29:20;;;;;;;;;;;9.70;90.20;;;;;;5001886;28;20032;-69
2023/04/13 00:31:47;;;;;;;;;;;9.70;90.20;;;;;;4998260;28;19930;-68
2023/04/13 00:34:13;;;;;;;;;;;9.70;90.10;;;;;;5002151;28;20003;-69
2023/04/13 00:36:41;;;;;;;;;;;9.70;90.00;;;;;;5001237;28;19933;-69
2023/04/13 00:39:08;;;;;;;;;;;9.60;89.80;;;;;;5000719;28;19929;-69
2023/04/13 00:41:34;;;;;;;;;;;9.60;89.40;;;;;;5001668;28;19936;-69
2023/04/13 00:44:01;;;;;;;;;;;9.60;89.10;;;;;;5001406;28;19933;-69
2023/04/13 00:46:28;;;;;;;;;;;9.60;88.80;;;;;;5000292;28;19940;-70
2023/04/13 00:48:57;;;;;;;;;;;9.50;88.50;;;;;;5002784;28;19929;-69
2023/04/13 00:51:23;;;;;;;;;;;9.50;88.40;;;;;;4999244;28;19929;-69
2023/04/13 00:53:51;;;;;;;;;;;9.50;88.10;;;;;;4999258;28;19933;-69
2023/04/13 00:56:21;;;;;;;;;;;9.50;88.10;;;;;;5001210;28;20662;-69
2023/04/13 00:58:48;;;;;;;;;;;9.50;88.00;;;;;;5002360;28;20837;-70
2023/04/13 01:01:18;;;;;;;;;;;9.40;88.00;;;;;;4997733;28;19941;-69
2023/04/13 01:03:44;;;;;;;;;;;9.40;87.90;;;;;;5002409;28;19937;-69
2023/04/13 01:06:16;;;;;;;;;;;9.40;87.80;;;;;;4999751;28;19930;-70
2023/04/13 01:08:46;;;;;;;;;;;9.40;87.80;;;;;;5002499;28;19933;-69
2023/04/13 01:11:18;;;;;;;;;;;9.40;87.70;;;;;;5000750;28;19929;-68
2023/04/13 01:13:46;;;;;;;;;;;9.40;87.50;;;;;;5000906;28;20454;-69
2023/04/13 01:16:16;;;;;;;;;;;9.40;87.50;;;;;;4999768;28;19929;-69
2023/04/13 01:18:45;;;;;;;;;;;9.40;87.40;;;;;;5000854;28;19929;-69
2023/04/13 01:21:13;;;;;;;;;;;9.30;87.20;;;;;;4999708;28;19937;-68
2023/04/13 01:23:48;;;;;;;;;;;9.30;87.00;;;;;;5001857;28;19929;-68
2023/04/13 01:26:16;;;;;;;;;;;9.30;87.00;;;;;;4999978;28;19940;-69
2023/04/13 01:28:44;;;;;;;;;;;9.30;86.80;;;;;;5001914;28;19957;-70
2023/04/13 01:31:12;;;;;;;;;;;9.30;86.70;;;;;;4995228;28;19987;-70
2023/04/13 01:33:39;;;;;;;;;;;9.30;86.70;;;;;;5005255;28;19933;-69
2023/04/13 01:36:06;;;;;;;;;;;9.30;86.60;;;;;;5003787;28;19984;-68
2023/04/13 01:38:33;;;;;;;;;;;9.30;86.60;;;;;;5005294;28;19983;-69
2023/04/13 01:40:59;;;;;;;;;;;9.20;86.50;;;;;;5001586;28;20467;-69
2023/04/13 01:43:27;;;;;;;;;;;9.30;86.40;;;;;;5004716;28;19929;-69
2023/04/13 01:45:59;;;;;;;;;;;9.20;86.00;;;;;;5002707;28;19929;-69
2023/04/13 01:48:28;;;;;;;;;;;9.20;86.00;;;;;;5004085;28;20020;-69
2023/04/13 01:50:57;;;;;;;;;;;9.20;86.10;;;;;;5002263;28;20426;-67
2023/04/13 01:53:28;;;;;;;;;;;9.20;86.10;;;;;;5001025;28;19992;-69
2023/04/13 01:55:55;;;;;;;;;;;9.10;85.90;;;;;;5003550;28;20517;-68
2023/04/13 01:58:26;;;;;;;;;;;9.10;85.70;;;;;;5003786;28;19974;-68
2023/04/13 02:00:53;;;;;;;;;;;9.10;85.60;;;;;;5000951;28;19937;-69
2023/04/13 02:03:22;;;;;;;;;;;9.10;85.60;;;;;;5003879;28;20331;-68
2023/04/13 02:05:49;;;;;;;;;;;9.10;85.50;;;;;;5003394;28;19940;-69
2023/04/13 02:08:17;;;;;;;;;;;9.10;85.20;;;;;;5002840;28;19983;-68
2023/04/13 02:10:44;;;;;;;;;;;9.00;84.80;;;;;;5002469;28;19937;-68
2023/04/13 02:13:10;;;;;;;;;;;9.00;84.60;;;;;;5003732;28;19929;-69
2023/04/13 02:15:37;;;;;;;;;;;9.00;84.50;;;;;;5000644;28;19936;-69
2023/04/13 02:18:04;;;;;;;;;;;9.00;85.10;;;;;;5001585;28;19929;-69
2023/04/13 02:20:39;;;;;;;;;;;9.00;84.50;;;;;;5001492;28;19936;-69
2023/04/13 02:23:07;;;;;;;;;;;9.00;84.60;;;;;;5002197;28;19929;-68
2023/04/13 02:25:33;;;;;;;;;;;8.90;84.40;;;;;;5002812;28;20470;-68
2023/04/13 02:28:00;;;;;;;;;;;9.00;84.40;;;;;;5003913;28;19929;-69
2023/04/13 02:30:27;;;;;;;;;;;8.90;84.30;;;;;;4999190;28;20041;-69
2023/04/13 02:32:53;;;;;;;;;;;8.90;84.20;;;;;;5003490;28;19929;-69
2023/04/13 02:35:20;;;;;;;;;;;8.90;84.10;;;;;;5002918;28;19936;-68
2023/04/13 02:37:48;;;;;;;;;;;8.90;83.90;;;;;;5002155;28;20394;-68
2023/04/13 02:43:18;;;;;;;;;;;8.90;83.40;;;;;;4094240;28;25945338;-70
2023/04/13 02:45:45;;;;;;;;;;;8.90;83.50;;;;;;5002022;28;20489;-69
2023/04/13 02:48:11;;;;;;;;;;;8.80;83.50;;;;;;5003931;28;20038;-68
2023/04/13 02:50:38;;;;;;;;;;;8.80;83.30;;;;;;5002396;28;19984;-68
2023/04/13 02:53:06;;;;;;;;;;;8.80;83.20;;;;;;5002688;28;19933;-68
2023/04/13 02:55:33;;;;;;;;;;;8.80;83.30;;;;;;5007923;28;19971;-68
2023/04/13 02:57:59;;;;;;;;;;;8.80;83.40;;;;;;5004005;28;20445;-69
2023/04/13 03:00:27;;;;;;;;;;;8.90;83.50;;;;;;5006537;28;19934;-69
2023/04/13 03:02:54;;;;;;;;;;;8.90;83.50;;;;;;5009639;28;19932;-68
2023/04/13 03:05:21;;;;;;;;;;;8.80;83.50;;;;;;5007314;28;19980;-68
2023/04/13 03:07:48;;;;;;;;;;;8.90;83.40;;;;;;5005106;28;19937;-69
2023/04/13 03:10:17;;;;;;;;;;;8.80;83.40;;;;;;5000363;28;20469;-69
2023/04/13 03:12:44;;;;;;;;;;;8.80;83.30;;;;;;5006777;28;19936;-71
2023/04/13 03:15:11;;;;;;;;;;;8.80;83.30;;;;;;5002671;28;20032;-69
2023/04/13 03:17:39;;;;;;;;;;;8.80;83.30;;;;;;5007745;28;20402;-69
2023/04/13 03:20:09;;;;;;;;;;;8.80;83.30;;;;;;5010664;28;19933;-68
2023/04/13 03:22:35;;;;;;;;;;;8.80;83.30;;;;;;5005821;28;19932;-70
2023/04/13 03:25:02;;;;;;;;;;;8.80;83.30;;;;;;4997969;28;19933;-68
2023/04/13 03:27:30;;;;;;;;;;;8.80;83.30;;;;;;5006593;28;19931;-69
2023/04/13 03:29:57;;;;;;;;;;;8.80;83.30;;;;;;5004971;28;19968;-69
2023/04/13 03:32:24;;;;;;;;;;;8.80;83.20;;;;;;5007918;28;19925;-69
2023/04/13 03:34:50;;;;;;;;;;;8.80;83.20;;;;;;5009643;28;19980;-70
2023/04/13 03:37:17;;;;;;;;;;;8.80;83.20;;;;;;5006108;28;19953;-68
2023/04/13 03:39:43;;;;;;;;;;;8.80;83.00;;;;;;5002767;28;19933;-68
2023/04/13 03:42:10;;;;;;;;;;;8.70;82.80;;;;;;5001060;28;20020;-70
2023/04/13 03:44:38;;;;;;;;;;;8.70;82.90;;;;;;4983038;28;19940;-68
2023/04/13 03:47:04;;;;;;;;;;;8.80;83.20;;;;;;4977288;28;19944;-69
2023/04/13 03:49:31;;;;;;;;;;;8.80;83.20;;;;;;4977834;28;19933;-68
2023/04/13 03:51:58;;;;;;;;;;;8.80;83.10;;;;;;4976119;28;19941;-68
2023/04/13 03:54:24;;;;;;;;;;;8.80;83.20;;;;;;4975827;28;19938;-69
2023/04/13 03:56:51;;;;;;;;;;;8.70;83.10;;;;;;4977280;28;20450;-71
2023/04/13 03:59:18;;;;;;;;;;;8.70;83.20;;;;;;4975701;28;20048;-69
2023/04/13 04:01:46;;;;;;;;;;;8.70;83.20;;;;;;4976945;28;19929;-69
2023/04/13 04:04:12;;;;;;;;;;;8.70;83.20;;;;;;4977301;28;20075;-68
2023/04/13 04:06:39;;;;;;;;;;;8.70;83.70;;;;;;4975910;28;19929;-69
2023/04/13 04:09:05;;;;;;;;;;;8.70;83.10;;;;;;4977267;28;19933;-68
2023/04/13 04:11:32;;;;;;;;;;;8.70;83.10;;;;;;4977047;28;19933;-69
2023/04/13 04:13:58;;;;;;;;;;;8.70;83.10;;;;;;4977397;28;19929;-69
2023/04/13 04:16:25;;;;;;;;;;;8.80;83.20;;;;;;4976626;28;19936;-70
2023/04/13 04:18:53;;;;;;;;;;;8.70;83.20;;;;;;4975365;28;19933;-67
2023/04/13 04:21:21;;;;;;;;;;;8.70;83.20;;;;;;4976867;28;19948;-69
2023/04/13 04:23:47;;;;;;;;;;;8.70;83.20;;;;;;4977997;28;20440;-70
2023/04/13 04:26:14;;;;;;;;;;;8.70;83.10;;;;;;4976993;28;19930;-69
2023/04/13 04:28:40;;;;;;;;;;;8.70;83.00;;;;;;4976551;28;20003;-69
2023/04/13 04:31:09;;;;;;;;;;;8.70;82.90;;;;;;4975422;28;19937;-68
2023/04/13 04:33:37;;;;;;;;;;;8.70;82.90;;;;;;4977374;28;20388;-69
2023/04/13 04:36:05;;;;;;;;;;;8.70;82.80;;;;;;4977028;28;20016;-68
2023/04/13 04:38:32;;;;;;;;;;;8.70;82.90;;;;;;4977590;28;19930;-70
2023/04/13 04:41:01;;;;;;;;;;;8.70;82.90;;;;;;4976970;28;19933;-70
2023/04/13 04:43:28;;;;;;;;;;;8.70;82.80;;;;;;4981649;28;19937;-70
2023/04/13 04:45:56;;;;;;;;;;;8.70;82.80;;;;;;5001369;28;19969;-70
2023/04/13 04:48:25;;;;;;;;;;;8.70;82.70;;;;;;5004523;28;20802;-69
2023/04/13 04:50:53;;;;;;;;;;;8.70;82.60;;;;;;4991561;28;20300;-69
2023/04/13 04:53:21;;;;;;;;;;;8.70;82.50;;;;;;4998054;28;20649;-69
2023/04/13 04:55:47;;;;;;;;;;;8.70;82.50;;;;;;5001627;28;19996;-69
2023/04/13 04:58:14;;;;;;;;;;;8.70;82.40;;;;;;4998442;28;19980;-68
2023/04/13 05:00:40;;;;;;;;;;;8.60;82.30;;;;;;4998991;28;19964;-69
2023/04/13 05:03:07;;;;;;;;;;;8.60;82.40;;;;;;5002097;28;19941;-68
2023/04/13 05:05:34;;;;;;;;;;;8.60;82.40;;;;;;4998243;28;20020;-69
2023/04/13 05:08:00;;;;;;;;;;;8.60;82.30;;;;;;5001986;28;19940;-70
2023/04/13 05:10:28;;;;;;;;;;;8.60;82.20;;;;;;5000010;28;20538;-69
2023/04/13 05:12:55;;;;;;;;;;;8.50;82.10;;;;;;5000355;28;19930;-68
2023/04/13 05:15:22;;;;;;;;;;;8.60;82.10;;;;;;4998978;28;19975;-68
2023/04/13 05:17:49;;;;;;;;;;;8.50;81.90;;;;;;4999605;28;19925;-69
2023/04/13 05:20:16;;;;;;;;;;;8.60;81.80;;;;;;5000068;28;19929;-68
2023/04/13 05:22:42;;;;;;;;;;;8.50;81.60;;;;;;4995386;28;20332;-69
2023/04/13 05:25:09;;;;;;;;;;;8.50;81.60;;;;;;5001053;28;19937;-69
2023/04/13 05:27:37;;;;;;;;;;;8.50;81.50;;;;;;5001000;28;20482;-69
2023/04/13 05:30:05;;;;;;;;;;;8.50;81.60;;;;;;4997806;28;20016;-68
2023/04/13 05:32:33;;;;;;;;;;;8.50;81.60;;;;;;5000773;28;20375;-69
2023/04/13 05:34:59;;;;;;;;;;;8.50;81.60;;;;;;5001629;28;19936;-69
2023/04/13 05:37:26;;;;;;;;;;;8.50;81.70;;;;;;4999960;28;19934;-69
2023/04/13 05:39:53;;;;;;;;;;;8.50;81.60;;;;;;4999587;28;19933;-69
2023/04/13 05:42:20;;;;;;;;;;;8.50;81.70;;;;;;5001387;28;19933;-69
2023/04/13 05:44:48;;;;;;;;;;;8.50;81.80;;;;;;5000661;28;20470;-70
2023/04/13 05:47:14;;;;;;;;;;;8.50;81.90;;;;;;5002151;28;19929;-70
2023/04/13 05:49:41;;;;;;;;;;;8.50;82.00;;;;;;5000830;28;19930;-69
2023/04/13 05:52:09;;;;;;;;;;;8.50;81.90;;;;;;4997329;28;19938;-69
2023/04/13 05:54:36;;;;;;;;;;;8.50;82.00;;;;;;4999150;28;19929;-69
2023/04/13 05:57:02;;;;;;;;;;;8.50;82.00;;;;;;5001983;28;19948;-68
2023/04/13 05:59:29;;;;;;;;;;;8.50;81.90;;;;;;4997099;28;20760;-69
2023/04/13 06:01:58;;;;;;;;;;;8.40;81.90;;;;;;5001133;28;19932;-68
2023/04/13 06:04:25;;;;;;;;;;;8.50;81.90;;;;;;5001534;28;20028;-69
2023/04/13 06:06:53;;;;;;;;;;;8.50;81.90;;;;;;4998617;28;19929;-68
2023/04/13 06:09:20;;;;;;;;;;;8.50;81.90;;;;;;4999040;28;19972;-67
2023/04/13 06:11:46;;;;;;;;;;;8.50;81.90;;;;;;5001596;28;19933;-70
2023/04/13 06:14:13;;;;;;;;;;;8.50;81.90;;;;;;4997823;28;19929;-68
2023/04/13 06:16:39;;;;;;;;;;;8.50;82.00;;;;;;5001049;28;20442;-69
2023/04/13 06:19:07;;;;;;;;;;;8.50;82.00;;;;;;5003935;28;19961;-69
2023/04/13 06:21:34;;;;;;;;;;;8.50;82.00;;;;;;5004508;28;19936;-70
2023/04/13 06:24:00;;;;;;;;;;;8.50;82.10;;;;;;4997404;28;19942;-70
2023/04/13 06:26:27;;;;;;;;;;;8.50;82.10;;;;;;5004224;28;20359;-68
2023/04/13 06:28:54;;;;;;;;;;;8.50;82.10;;;;;;5002376;28;19933;-69
2023/04/13 06:31:22;;;;;;;;;;;8.50;82.10;;;;;;5003319;28;19929;-68
2023/04/13 06:33:48;;;;;;;;;;;8.40;82.10;;;;;;5003603;28;19929;-69
2023/04/13 06:36:16;;;;;;;;;;;8.50;82.20;;;;;;4999678;28;20400;-68
2023/04/13 06:38:43;;;;;;;;;;;8.50;82.30;;;;;;5003019;28;19941;-69
2023/04/13 06:41:09;;;;;;;;;;;8.50;82.40;;;;;;5004081;28;19930;-67
2023/04/13 06:43:36;;;;;;;;;;;8.50;82.50;;;;;;5003395;28;20319;-69
2023/04/13 06:46:03;;;;;;;;;;;8.50;82.50;;;;;;5003780;28;20040;-69
2023/04/13 06:48:30;;;;;;;;;;;8.50;82.50;;;;;;5003768;28;19934;-69
2023/04/13 06:50:57;;;;;;;;;;;8.50;82.50;;;;;;5004381;28;20701;-69
2023/04/13 06:53:26;;;;;;;;;;;8.50;82.50;;;;;;4997377;28;19935;-69
2023/04/13 06:55:52;;;;;;;;;;;8.70;82.70;;;;;;5003968;28;19936;-69
2023/04/13 06:58:20;;;;;;;;;;;8.50;82.60;;;;;;5000758;28;19938;-70
2023/04/13 07:00:46;;;;;;;;;;;8.60;82.60;;;;;;5002198;28;19937;-69
2023/04/13 07:03:13;;;;;;;;;;;8.60;82.50;;;;;;5004358;28;20354;-69
2023/04/13 07:05:39;;;;;;;;;;;8.60;82.30;;;;;;5003207;28;19934;-69
2023/04/13 07:08:06;;;;;;;;;;;8.60;82.30;;;;;;5004505;28;19925;-68
2023/04/13 07:10:38;;;;;;;;;;;8.60;82.30;;;;;;5002173;28;20359;-69
2023/04/13 07:13:04;;;;;;;;;;;8.60;82.20;;;;;;5001420;28;19934;-69
2023/04/13 07:15:31;;;;;;;;;;;8.70;82.30;;;;;;5002193;28;19926;-68
2023/04/13 07:17:57;;;;;;;;;;;8.70;82.20;;;;;;5001690;28;20390;-68
2023/04/13 07:20:24;;;;;;;;;;;8.70;82.10;;;;;;5002465;28;19925;-69
2023/04/13 07:22:51;;;;;;;;;;;8.70;82.00;;;;;;5004539;28;19933;-68
2023/04/13 07:25:17;;;;;;;;;;;8.70;81.90;;;;;;5002534;28;20407;-69
2023/04/13 07:27:45;;;;;;;;;;;8.80;82.00;;;;;;5003920;28;19929;-69
2023/04/13 07:30:13;;;;;;;;;;;8.80;82.00;;;;;;4999096;28;20224;-68
2023/04/13 07:32:39;;;;;;;;;;;8.80;82.80;;;;;;5003755;28;19961;-68
2023/04/13 07:35:06;;;;;;;;;;;8.90;82.00;;;;;;5003299;28;19925;-69
2023/04/13 07:37:33;;;;;;;;;;;8.80;81.90;;;;;;5003455;28;19926;-70
2023/04/13 07:39:59;;;;;;;;;;;8.90;82.00;;;;;;5000558;28;20576;-71
2023/04/13 07:42:26;;;;;;;;;;;8.80;81.80;;;;;;5001203;28;19991;-68
2023/04/13 07:44:55;;;;;;;;;;;8.90;81.90;;;;;;4998276;28;19929;-70
2023/04/13 07:47:22;;;;;;;;;;;8.90;81.70;;;;;;5003190;28;19983;-69
2023/04/13 07:49:48;;;;;;;;;;;8.90;81.40;;;;;;5002494;28;19992;-70
2023/04/13 07:52:15;;;;;;;;;;;8.90;81.30;;;;;;5002969;28;19929;-69
2023/04/13 07:54:42;;;;;;;;;;;9.00;81.40;;;;;;5002041;28;21197;-69
2023/04/13 07:57:08;;;;;;;;;;;9.00;81.30;;;;;;5003343;28;19960;-69
2023/04/13 07:59:35;;;;;;;;;;;9.00;81.30;;;;;;4999953;28;19930;-69
2023/04/13 08:02:03;;;;;;;;;;;9.00;81.60;;;;;;5001869;28;20458;-69
2023/04/13 08:04:30;;;;;;;;;;;9.10;81.80;;;;;;5002520;28;19933;-69
2023/04/13 08:06:57;;;;;;;;;;;9.10;82.00;;;;;;5001141;28;20012;-69
2023/04/13 08:09:23;;;;;;;;;;;9.10;82.60;;;;;;5000882;28;20416;-69
2023/04/13 08:11:50;;;;;;;;;;;9.10;83.00;;;;;;5002052;28;19929;-69
2023/04/13 08:14:16;;;;;;;;;;;9.20;83.50;;;;;;4998679;28;19934;-69
2023/04/13 08:16:43;;;;;;;;;;;9.20;83.60;;;;;;4999223;28;19936;-71
2023/04/13 08:19:12;;;;;;;;;;;9.20;83.50;;;;;;5000763;28;19929;-69
2023/04/13 08:21:40;;;;;;;;;;;9.30;83.50;;;;;;4996268;28;19976;-70
2023/04/13 08:24:08;;;;;;;;;;;9.20;83.40;;;;;;5002910;28;19929;-69
2023/04/13 08:26:35;;;;;;;;;;;9.30;83.60;;;;;;4999006;28;19930;-70
2023/04/13 08:29:02;;;;;;;;;;;9.30;84.00;;;;;;4999823;28;19929;-69
2023/04/13 08:31:28;;;;;;;;;;;9.20;84.20;;;;;;5001598;28;19929;-70
2023/04/13 08:33:55;;;;;;;;;;;9.30;84.20;;;;;;5002449;28;19930;-69
2023/04/13 08:36:23;;;;;;;;;;;9.30;84.50;;;;;;5001050;28;19929;-69
2023/04/13 08:38:49;;;;;;;;;;;9.30;84.50;;;;;;5001368;28;19976;-69
2023/04/13 08:41:16;;;;;;;;;;;9.30;84.30;;;;;;5001296;28;19929;-69
2023/04/13 08:43:43;;;;;;;;;;;9.30;84.00;;;;;;5001097;28;19929;-69
2023/04/13 08:46:10;;;;;;;;;;;9.20;83.90;;;;;;5001513;28;19940;-68
2023/04/13 08:48:40;;;;;;;;;;;9.20;83.90;;;;;;5001642;28;20289;-69
2023/04/13 08:51:06;;;;;;;;;;;9.30;84.10;;;;;;5000964;28;19964;-69
2023/04/13 08:53:34;;;;;;;;;;;9.30;84.40;;;;;;4999819;28;20327;-68
2023/04/13 08:56:01;;;;;;;;;;;9.30;84.50;;;;;;5001536;28;20288;-69
2023/04/13 08:58:30;;;;;;;;;;;9.30;85.10;;;;;;4996552;28;19926;-70
2023/04/13 09:00:57;;;;;;;;;;;9.40;85.50;;;;;;5000472;28;19956;-69
2023/04/13 09:03:24;;;;;;;;;;;9.40;85.50;;;;;;5002742;28;19960;-69
2023/04/13 09:05:58;;;;;;;;;;;9.50;85.40;;;;;;5001866;28;19976;-69
2023/04/13 09:08:26;;;;;;;;;;;9.50;85.10;;;;;;4998921;28;19929;-68
2023/04/13 09:10:57;;;;;;;;;;;9.60;84.90;;;;;;5001086;28;19929;-69
2023/04/13 09:13:23;;;;;;;;;;;9.60;84.30;;;;;;5001194;28;19936;-69
2023/04/13 09:15:50;;;;;;;;;;;9.80;84.00;;;;;;5001407;28;19983;-69
2023/04/13 09:18:16;;;;;;;;;;;9.80;83.60;;;;;;4998560;28;19933;-70
2023/04/13 09:20:43;;;;;;;;;;;9.80;83.40;;;;;;5001285;28;19930;-70
2023/04/13 09:23:14;;;;;;;;;;;9.90;83.40;;;;;;5002297;28;19937;-70
2023/04/13 09:25:41;;;;;;;;;;;9.90;83.00;;;;;;5000569;28;20012;-70
2023/04/13 09:28:16;;;;;;;;;;;9.90;82.80;;;;;;4999953;28;19933;-68
2023/04/13 09:30:43;;;;;;;;;;;10.00;82.70;;;;;;4999867;28;19929;-67
2023/04/13 09:33:10;;;;;;;;;;;10.00;82.60;;;;;;5001922;28;19929;-69
2023/04/13 09:35:37;;;;;;;;;;;10.00;82.50;;;;;;5001751;28;19929;-69
2023/04/13 09:38:05;;;;;;;;;;;10.00;82.60;;;;;;4998165;28;19995;-70
2023/04/13 09:40:31;;;;;;;;;;;10.00;82.40;;;;;;5000848;28;19929;-69
2023/04/13 09:42:59;;;;;;;;;;;10.00;82.40;;;;;;5000841;28;19933;-70
2023/04/13 09:45:34;;;;;;;;;;;10.10;82.40;;;;;;5000947;28;19934;-70
2023/04/13 09:48:01;;;;;;;;;;;10.10;82.20;;;;;;5001562;28;19929;-69
2023/04/13 09:50:31;;;;;;;;;;;10.10;82.00;;;;;;5001103;28;20016;-70
2023/04/13 09:53:01;;;;;;;;;;;10.10;81.90;;;;;;5000990;28;19935;-68
2023/04/13 09:55:28;;;;;;;;;;;10.20;81.80;;;;;;5005272;28;19969;-70
2023/04/13 09:57:55;;;;;;;;;;;10.20;81.80;;;;;;5003482;28;20494;-69
2023/04/13 10:00:22;;;;;;;;;;;10.20;81.60;;;;;;5000422;28;20022;-69
2023/04/13 10:02:50;;;;;;;;;;;10.30;81.50;;;;;;5005179;28;19938;-70
2023/04/13 10:05:17;;;;;;;;;;;10.30;81.30;;;;;;5005016;28;19936;-70
2023/04/13 10:07:44;;;;;;;;;;;10.40;80.80;;;;;;5004691;28;19934;-70
2023/04/13 10:10:11;;;;;;;;;;;10.40;80.60;;;;;;5004364;28;20390;-69
2023/04/13 10:12:38;;;;;;;;;;;10.40;80.30;;;;;;5004294;28;19936;-70
2023/04/13 10:15:10;;;;;;;;;;;10.50;80.10;;;;;;5003610;28;19929;-68
2023/04/13 10:17:47;;;;;;;;;;;10.40;80.10;;;;;;4999310;28;19929;-69
2023/04/13 10:20:16;;;;;;;;;;;10.50;80.00;;;;;;5003616;28;19940;-68
2023/04/13 10:22:44;;;;;;;;;;;10.50;80.10;;;;;;5005548;28;20441;-69
2023/04/13 10:25:12;;;;;;;;;;;10.40;79.90;;;;;;5005018;28;19929;-70
2023/04/13 10:27:38;;;;;;;;;;;10.50;79.80;;;;;;5004235;28;19933;-69
2023/04/13 10:30:18;;;;;;;;;;;10.50;79.60;;;;;;5001229;28;19980;-70
2023/04/13 10:32:44;;;;;;;;;;;10.60;79.70;;;;;;5003930;28;20551;-70
2023/04/13 10:35:12;;;;;;;;;;;10.60;79.30;;;;;;5004281;28;20665;-70
2023/04/13 10:37:41;;;;;;;;;;;10.60;79.30;;;;;;5003234;28;20150;-69
2023/04/13 10:40:12;;;;;;;;;;;10.60;79.30;;;;;;5002724;28;19993;-69
2023/04/13 10:42:40;;;;;;;;;;;10.60;79.30;;;;;;5004847;28;19929;-70
2023/04/13 10:45:16;;;;;;;;;;;10.60;79.40;;;;;;5002064;28;19935;-70
2023/04/13 10:47:43;;;;;;;;;;;10.60;79.40;;;;;;5001069;28;19933;-69
2023/04/13 10:50:15;;;;;;;;;;;10.60;79.50;;;;;;5002899;28;19933;-69
2023/04/13 10:52:53;;;;;;;;;;;10.60;79.60;;;;;;5001870;28;20411;-69
2023/04/13 10:55:21;;;;;;;;;;;10.70;79.50;;;;;;5003989;28;19995;-69
2023/04/13 10:57:47;;;;;;;;;;;10.70;79.40;;;;;;5003436;28;20384;-69
2023/04/13 11:00:20;;;;;;;;;;;10.80;79.20;;;;;;5002282;28;19933;-70
2023/04/13 11:02:48;;;;;;;;;;;10.80;78.90;;;;;;5004361;28;19930;-69
2023/04/13 11:05:15;;;;;;;;;;;10.80;79.00;;;;;;5004923;28;19964;-70
2023/04/13 11:07:44;;;;;;;;;;;10.80;78.80;;;;;;5002995;28;19929;-70
2023/04/13 11:10:11;;;;;;;;;;;10.80;78.80;;;;;;5001168;28;20015;-69
2023/04/13 11:12:38;;;;;;;;;;;10.80;78.80;;;;;;5003895;28;19930;-70
2023/04/13 11:15:05;;;;;;;;;;;10.80;78.90;;;;;;5000658;28;20503;-69
2023/04/13 11:17:31;;;;;;;;;;;10.80;79.10;;;;;;5000972;28;19941;-70
2023/04/13 11:20:00;;;;;;;;;;;10.80;79.10;;;;;;5002994;28;19972;-70
2023/04/13 11:22:27;;;;;;;;;;;10.80;79.20;;;;;;5002530;28;20004;-69
2023/04/13 11:25:05;;;;;;;;;;;10.80;78.80;;;;;;5004081;28;19930;-69
2023/04/13 11:27:31;;;;;;;;;;;10.80;78.80;;;;;;4996209;28;19929;-69
2023/04/13 11:29:58;;;;;;;;;;;10.80;78.80;;;;;;5000386;28;21266;-70
2023/04/13 11:32:26;;;;;;;;;;;10.80;78.60;;;;;;5002191;28;19929;-69
2023/04/13 11:34:53;;;;;;;;;;;10.80;78.60;;;;;;5003362;28;20024;-70
2023/04/13 11:37:20;;;;;;;;;;;10.80;78.80;;;;;;5003813;28;19941;-70
2023/04/13 11:39:49;;;;;;;;;;;10.80;78.90;;;;;;4999423;28;19968;-69
2023/04/13 11:42:17;;;;;;;;;;;10.80;78.80;;;;;;5004086;28;20043;-69
2023/04/13 11:44:45;;;;;;;;;;;10.80;78.80;;;;;;4999857;28;19935;-68
2023/04/13 11:47:14;;;;;;;;;;;10.80;78.70;;;;;;5002848;28;20560;-69
2023/04/13 11:49:46;;;;;;;;;;;10.80;78.80;;;;;;5002024;28;20024;-69
2023/04/13 11:52:13;;;;;;;;;;;10.90;78.80;;;;;;5003806;28;20032;-69
2023/04/13 11:54:41;;;;;;;;;;;10.90;78.80;;;;;;5002553;28;19934;-70
2023/04/13 11:57:08;;;;;;;;;;;10.90;78.70;;;;;;5003254;28;20011;-69
2023/04/13 11:59:37;;;;;;;;;;;10.90;78.60;;;;;;4996644;28;20519;-69
2023/04/13 12:02:05;;;;;;;;;;;10.90;78.10;;;;;;5002844;28;19930;-71
2023/04/13 12:04:36;;;;;;;;;;;11.00;78.30;;;;;;5002699;28;19937;-70
2023/04/13 12:07:08;;;;;;;;;;;11.00;78.10;;;;;;5002113;28;19929;-69
2023/04/13 12:09:39;;;;;;;;;;;11.10;78.00;;;;;;5001771;28;19940;-69
2023/04/13 12:12:07;;;;;;;;;;;11.10;78.20;;;;;;5003132;28;19929;-70
2023/04/13 12:14:33;;;;;;;;;;;11.10;77.70;;;;;;4998569;28;19930;-70
2023/04/13 12:17:01;;;;;;;;;;;11.10;77.40;;;;;;4997055;28;19930;-70
2023/04/13 12:19:28;;;;;;;;;;;11.20;77.50;;;;;;5001664;28;19929;-70
2023/04/13 12:21:54;;;;;;;;;;;11.20;77.50;;;;;;5003228;28;19933;-69
2023/04/13 12:24:30;;;;;;;;;;;11.20;77.20;;;;;;5002836;28;19929;-70
2023/04/13 12:27:00;;;;;;;;;;;11.20;77.00;;;;;;4996086;28;19973;-70
2023/04/13 12:29:27;;;;;;;;;;;11.30;77.00;;;;;;4998696;28;19937;-69
2023/04/13 12:31:59;;;;;;;;;;;11.30;77.10;;;;;;5002144;28;19930;-70
2023/04/13 12:34:27;;;;;;;;;;;11.30;76.70;;;;;;5003025;28;19937;-69
2023/04/13 12:36:53;;;;;;;;;;;11.30;76.90;;;;;;5001806;28;19937;-69
2023/04/13 12:39:20;;;;;;;;;;;11.30;77.70;;;;;;5000166;28;20694;-70
2023/04/13 12:41:46;;;;;;;;;;;11.30;77.10;;;;;;5002738;28;19960;-69
2023/04/13 12:44:13;;;;;;;;;;;11.30;76.90;;;;;;5001506;28;19936;-69
2023/04/13 12:46:41;;;;;;;;;;;11.40;76.90;;;;;;5001257;28;20683;-69
2023/04/13 12:49:07;;;;;;;;;;;11.40;76.80;;;;;;5002369;28;19936;-70
2023/04/13 12:51:35;;;;;;;;;;;11.40;76.60;;;;;;5001223;28;19937;-69
2023/04/13 12:54:02;;;;;;;;;;;11.50;76.30;;;;;;5002044;28;19945;-69
2023/04/13 12:56:28;;;;;;;;;;;11.40;76.30;;;;;;5001986;28;19936;-70
2023/04/13 12:58:55;;;;;;;;;;;11.50;76.10;;;;;;5000320;28;19933;-69
2023/04/13 13:01:21;;;;;;;;;;;11.50;76.00;;;;;;4999978;28;19933;-69
2023/04/13 13:03:48;;;;;;;;;;;11.60;75.90;;;;;;5002690;28;19936;-69
2023/04/13 13:06:14;;;;;;;;;;;11.60;75.20;;;;;;5000172;28;19953;-69
2023/04/13 13:08:42;;;;;;;;;;;11.60;75.10;;;;;;5001436;28;20587;-69
2023/04/13 13:11:09;;;;;;;;;;;11.60;74.50;;;;;;5001501;28;19929;-69
2023/04/13 13:13:35;;;;;;;;;;;11.70;74.80;;;;;;5001170;28;19991;-69
2023/04/13 13:16:02;;;;;;;;;;;11.60;74.90;;;;;;5000641;28;20003;-69
2023/04/13 13:18:28;;;;;;;;;;;11.80;74.50;;;;;;4997412;28;20020;-70
2023/04/13 13:20:55;;;;;;;;;;;11.80;74.80;;;;;;5001521;28;19929;-69
2023/04/13 13:23:22;;;;;;;;;;;11.80;74.60;;;;;;5002329;28;20388;-69
2023/04/13 13:25:50;;;;;;;;;;;11.90;74.60;;;;;;4999883;28;19941;-71
2023/04/13 13:28:16;;;;;;;;;;;11.90;73.90;;;;;;4999182;28;19929;-69
2023/04/13 13:30:43;;;;;;;;;;;11.90;74.10;;;;;;5004063;28;19936;-69
2023/04/13 13:33:09;;;;;;;;;;;11.90;74.40;;;;;;5001730;28;20491;-69
2023/04/13 13:35:36;;;;;;;;;;;11.90;74.40;;;;;;5005544;28;19967;-69
2023/04/13 13:38:03;;;;;;;;;;;11.90;74.40;;;;;;5000031;28;19952;-70
2023/04/13 13:40:30;;;;;;;;;;;11.90;74.60;;;;;;5005668;28;19929;-70
2023/04/13 13:42:58;;;;;;;;;;;11.90;74.80;;;;;;5005038;28;19936;-70
2023/04/13 13:45:24;;;;;;;;;;;12.00;75.20;;;;;;5003986;28;19933;-69
2023/04/13 13:47:52;;;;;;;;;;;11.90;77.40;;;;;;5005266;28;20482;-70
2023/04/13 13:50:20;;;;;;;;;;;11.90;79.00;;;;;;5004774;28;19983;-70
2023/04/13 13:52:46;;;;;;;;;;;11.90;80.20;;;;;;5004829;28;19953;-69
2023/04/13 13:55:13;;;;;;;;;;;11.90;80.80;;;;;;5006073;28;20553;-69
2023/04/13 13:57:40;;;;;;;;;;;11.90;81.20;;;;;;5005152;28;19935;-69
2023/04/13 14:00:15;;;;;;;;;;;11.90;82.10;;;;;;4998508;28;20458;-68
2023/04/13 14:02:42;;;;;;;;;;;11.90;82.30;;;;;;5005316;28;20410;-69
2023/04/13 14:05:11;;;;;;;;;;;11.90;83.30;;;;;;5005342;28;20672;-69
2023/04/13 14:07:39;;;;;;;;;;;12.00;83.40;;;;;;5004878;28;19979;-69
2023/04/13 14:10:06;;;;;;;;;;;12.10;83.00;;;;;;5005197;28;19955;-70
2023/04/13 14:12:33;;;;;;;;;;;12.20;82.60;;;;;;5005184;28;19929;-70
2023/04/13 14:14:59;;;;;;;;;;;12.20;81.70;;;;;;5000259;28;19937;-70
2023/04/13 14:17:27;;;;;;;;;;;12.30;81.00;;;;;;5000515;28;19936;-69
2023/04/13 14:19:54;;;;;;;;;;;12.40;80.60;;;;;;5004433;28;19930;-71
2023/04/13 14:22:21;;;;;;;;;;;12.50;79.90;;;;;;5003967;28;20009;-69
2023/04/13 14:24:50;;;;;;;;;;;12.60;79.50;;;;;;4998803;28;19930;-69
2023/04/13 14:27:17;;;;;;;;;;;12.60;78.60;;;;;;5004642;28;19952;-70
2023/04/13 14:29:44;;;;;;;;;;;12.70;78.10;;;;;;5000917;28;19937;-69
2023/04/13 14:32:11;;;;;;;;;;;12.80;77.70;;;;;;5002425;28;20348;-70